createdAt,value
2022-07-29T00:02:14.084Z,0.60
2022-07-29T00:04:40.552Z,0.60
2022-07-29T00:07:07.017Z,0.73
2022-07-29T00:09:33.722Z,0.70
2022-07-29T00:12:11.373Z,0.90
2022-07-29T00:14:38.127Z,0.50
2022-07-29T00:17:04.581Z,1.15
2022-07-29T00:19:30.963Z,0.70
2022-07-29T00:21:59.387Z,0.88
2022-07-29T00:24:25.841Z,0.93
2022-07-29T00:26:52.262Z,0.70
2022-07-29T00:29:33.658Z,0.88
2022-07-29T00:32:01.377Z,0.63
2022-07-29T00:34:46.285Z,0.60
2022-07-29T00:37:12.667Z,0.50
2022-07-29T00:39:39.084Z,0.60
2022-07-29T00:42:05.994Z,0.95
2022-07-29T00:44:37.570Z,1.10
2022-07-29T00:47:04.090Z,0.50
2022-07-29T00:49:30.638Z,0.57
2022-07-29T00:51:57.870Z,0.50
2022-07-29T00:54:24.484Z,0.65
2022-07-29T00:56:50.878Z,0.82
2022-07-29T00:59:17.233Z,0.70
2022-07-29T01:01:43.653Z,0.80
2022-07-29T01:04:10.133Z,0.70
2022-07-29T01:06:36.962Z,0.65
2022-07-29T01:09:04.204Z,0.70
2022-07-29T01:11:30.677Z,0.88
2022-07-29T01:13:57.503Z,0.60
2022-07-29T01:16:49.174Z,0.80
2022-07-29T01:19:39.114Z,0.70
2022-07-29T01:22:28.621Z,0.73
2022-07-29T01:25:29.050Z,0.77
2022-07-29T01:28:14.493Z,0.73
2022-07-29T01:30:45.257Z,0.60
2022-07-29T01:33:36.364Z,0.70
2022-07-29T01:36:11.612Z,0.70
2022-07-29T01:38:40.421Z,0.60
2022-07-29T01:41:08.855Z,0.70
2022-07-29T01:43:54.916Z,1.00
2022-07-29T01:46:28.398Z,0.90
2022-07-29T01:49:01.138Z,0.90
2022-07-29T01:51:41.749Z,0.98
2022-07-29T01:54:15.793Z,0.88
2022-07-29T01:56:44.542Z,0.90
2022-07-29T01:59:11.822Z,0.77
2022-07-29T02:01:41.736Z,0.73
2022-07-29T02:04:11.810Z,0.90
2022-07-29T02:06:59.797Z,0.85
2022-07-29T02:09:27.491Z,1.00
2022-07-29T02:11:56.160Z,1.17
2022-07-29T02:14:24.071Z,0.88
2022-07-29T02:16:55.127Z,1.02
2022-07-29T02:19:24.330Z,1.02
2022-07-29T02:21:53.242Z,0.90
2022-07-29T02:24:20.859Z,0.95
2022-07-29T02:26:49.315Z,0.85
2022-07-29T02:29:16.339Z,0.90
2022-07-29T02:31:45.255Z,0.90
2022-07-29T02:34:13.317Z,1.17
2022-07-29T02:36:41.376Z,1.10
2022-07-29T02:39:10.597Z,1.27
2022-07-29T02:41:47.557Z,1.10
2022-07-29T02:44:18.297Z,1.10
2022-07-29T02:47:05.037Z,0.80
2022-07-29T02:49:40.952Z,1.17
2022-07-29T02:52:20.995Z,0.95
2022-07-29T02:54:52.307Z,1.10
2022-07-29T02:57:23.579Z,1.30
2022-07-29T02:59:53.780Z,1.00
2022-07-29T03:02:22.430Z,0.85
2022-07-29T03:04:50.317Z,1.20
2022-07-29T03:07:20.309Z,0.88
2022-07-29T03:09:47.262Z,1.05
2022-07-29T03:12:15.368Z,1.10
2022-07-29T03:14:43.019Z,0.90
2022-07-29T03:17:10.808Z,1.25
2022-07-29T03:19:37.353Z,1.10
2022-07-29T03:22:04.739Z,1.65
2022-07-29T03:24:33.833Z,0.97
2022-07-29T03:27:01.267Z,1.02
2022-07-29T03:29:32.921Z,1.00
2022-07-29T03:32:00.535Z,1.10
2022-07-29T03:34:29.115Z,1.00
2022-07-29T03:36:55.537Z,1.10
2022-07-29T03:39:26.548Z,1.00
2022-07-29T03:41:55.993Z,1.00
2022-07-29T03:44:23.903Z,1.40
2022-07-29T03:46:52.790Z,1.00
2022-07-29T03:49:21.510Z,0.60
2022-07-29T03:51:48.583Z,1.08
2022-07-29T03:54:15.265Z,0.93
2022-07-29T03:56:49.501Z,0.68
2022-07-29T03:59:18.605Z,0.60
2022-07-29T04:01:45.964Z,0.83
2022-07-29T04:04:13.023Z,0.85
2022-07-29T04:06:44.105Z,0.82
2022-07-29T04:09:10.764Z,0.90
2022-07-29T04:12:02.587Z,0.90
2022-07-29T04:14:26.167Z,0.90
2022-07-29T04:16:53.852Z,0.90
2022-07-29T04:19:20.240Z,1.20
2022-07-29T04:21:46.593Z,1.00
2022-07-29T04:24:13.215Z,1.08
2022-07-29T04:26:39.815Z,0.97
2022-07-29T04:29:06.215Z,1.10
2022-07-29T04:31:32.716Z,1.20
2022-07-29T04:33:59.145Z,0.85
2022-07-29T04:36:29.492Z,1.17
2022-07-29T04:38:56.541Z,0.90
2022-07-29T04:41:22.972Z,0.85
2022-07-29T04:43:50.247Z,1.02
2022-07-29T04:46:17.033Z,1.08
2022-07-29T04:48:43.567Z,0.82
2022-07-29T04:51:09.995Z,1.03
2022-07-29T04:53:36.361Z,0.90
2022-07-29T04:56:03.353Z,1.05
2022-07-29T04:58:29.706Z,1.02
2022-07-29T05:00:56.257Z,1.15
2022-07-29T05:03:22.616Z,1.00
2022-07-29T05:05:49.276Z,1.00
2022-07-29T05:08:15.673Z,1.10
2022-07-29T05:10:42.103Z,1.30
2022-07-29T05:13:08.700Z,1.33
2022-07-29T05:15:36.001Z,1.20
2022-07-29T05:18:02.616Z,1.40
2022-07-29T05:20:30.320Z,1.30
2022-07-29T05:22:58.466Z,1.30
2022-07-29T05:25:41.996Z,1.10
2022-07-29T05:28:11.132Z,1.70
2022-07-29T05:30:37.598Z,1.30
2022-07-29T05:33:04.107Z,1.35
2022-07-29T05:35:30.554Z,1.45
2022-07-29T05:37:56.941Z,1.30
2022-07-29T05:40:23.407Z,1.20
2022-07-29T05:42:49.779Z,1.15
2022-07-29T05:45:16.254Z,1.55
2022-07-29T05:47:42.683Z,1.20
2022-07-29T05:50:09.669Z,1.25
2022-07-29T05:52:36.084Z,1.07
2022-07-29T05:55:05.213Z,1.30
2022-07-29T05:57:31.955Z,1.40
2022-07-29T05:59:58.832Z,1.15
2022-07-29T06:02:25.177Z,1.23
2022-07-29T06:04:51.708Z,1.20
2022-07-29T06:07:18.258Z,1.67
2022-07-29T06:09:44.782Z,1.30
2022-07-29T06:12:11.237Z,1.17
2022-07-29T06:14:38.855Z,1.13
2022-07-29T06:17:06.565Z,1.47
2022-07-29T06:19:35.233Z,1.08
2022-07-29T06:22:01.741Z,1.38
2022-07-29T06:24:28.194Z,1.42
2022-07-29T06:26:54.617Z,1.30
2022-07-29T06:29:21.049Z,1.10
2022-07-29T06:31:47.423Z,1.30
2022-07-29T06:34:14.210Z,1.17
2022-07-29T06:36:41.006Z,1.63
2022-07-29T06:39:08.519Z,1.13
2022-07-29T06:41:35.448Z,1.43
2022-07-29T06:44:02.263Z,1.33
2022-07-29T06:46:28.733Z,1.35
2022-07-29T06:48:55.527Z,1.27
2022-07-29T06:51:23.878Z,1.30
2022-07-29T06:53:59.322Z,1.50
2022-07-29T06:56:40.322Z,1.27
2022-07-29T06:59:11.303Z,1.42
2022-07-29T07:01:39.791Z,1.45
2022-07-29T07:04:06.638Z,1.30
2022-07-29T07:06:33.530Z,1.17
2022-07-29T07:08:59.901Z,1.55
2022-07-29T07:11:26.350Z,1.70
2022-07-29T07:13:52.701Z,1.60
2022-07-29T07:16:19.221Z,1.70
2022-07-29T07:18:46.231Z,1.60
2022-07-29T07:21:13.226Z,1.60
2022-07-29T07:23:45.765Z,1.52
2022-07-29T07:26:12.116Z,1.40
2022-07-29T07:28:38.507Z,1.65
2022-07-29T07:31:04.894Z,1.50
2022-07-29T07:33:31.268Z,1.73
2022-07-29T07:35:57.705Z,2.10
2022-07-29T07:38:24.065Z,2.38
2022-07-29T07:40:50.432Z,1.75
2022-07-29T07:43:16.812Z,1.70
2022-07-29T07:45:43.278Z,1.88
2022-07-29T07:48:11.105Z,1.40
2022-07-29T07:50:37.979Z,1.83
2022-07-29T07:53:04.671Z,1.50
2022-07-29T07:55:47.467Z,1.50
2022-07-29T07:58:17.441Z,1.40
2022-07-29T08:00:43.914Z,1.70
2022-07-29T08:03:17.009Z,1.75
2022-07-29T08:05:44.292Z,1.75
2022-07-29T08:08:10.895Z,1.37
2022-07-29T08:10:56.097Z,1.60
2022-07-29T08:13:24.675Z,1.42
2022-07-29T08:16:11.848Z,1.55
2022-07-29T08:18:39.109Z,1.58
2022-07-29T08:21:05.734Z,1.33
2022-07-29T08:23:46.211Z,1.38
2022-07-29T08:26:15.611Z,1.38
2022-07-29T08:28:47.057Z,1.48
2022-07-29T08:31:14.563Z,1.75
2022-07-29T08:33:41.603Z,1.50
2022-07-29T08:36:08.175Z,1.30
2022-07-29T08:38:34.944Z,1.60
2022-07-29T08:41:02.820Z,1.70
2022-07-29T08:43:29.932Z,1.85
2022-07-29T08:45:56.522Z,1.87
2022-07-29T08:48:24.407Z,2.25
2022-07-29T08:50:56.663Z,2.10
2022-07-29T08:53:27.321Z,1.50
2022-07-29T08:55:54.077Z,1.45
2022-07-29T08:58:23.343Z,1.77
2022-07-29T09:00:55.526Z,1.70
2022-07-29T09:03:25.532Z,1.75
2022-07-29T09:05:52.845Z,1.85
2022-07-29T09:08:20.953Z,1.60
2022-07-29T09:10:47.765Z,1.70
2022-07-29T09:13:14.188Z,1.65
2022-07-29T09:15:40.593Z,1.60
2022-07-29T09:18:06.996Z,1.50
2022-07-29T09:21:08.445Z,1.58
2022-07-29T09:23:34.900Z,1.63
2022-07-29T09:26:06.786Z,1.58
2022-07-29T09:28:33.175Z,1.20
2022-07-29T09:31:00.014Z,1.50
2022-07-29T09:33:40.106Z,1.40
2022-07-29T09:36:08.668Z,1.67
2022-07-29T09:38:36.363Z,1.30
2022-07-29T09:41:06.340Z,1.38
2022-07-29T09:43:33.632Z,1.30
2022-07-29T09:46:13.996Z,1.30
2022-07-29T09:48:40.802Z,1.50
2022-07-29T09:51:20.607Z,1.27
2022-07-29T09:53:48.688Z,1.40
2022-07-29T09:56:15.202Z,1.40
2022-07-29T09:58:41.576Z,1.80
2022-07-29T10:01:08.035Z,1.70
2022-07-29T10:03:51.777Z,1.80
2022-07-29T10:06:18.249Z,1.88
2022-07-29T10:08:44.898Z,2.00
2022-07-29T10:11:12.496Z,2.10
2022-07-29T10:13:39.765Z,1.70
2022-07-29T10:16:07.226Z,2.13
2022-07-29T10:18:34.706Z,1.60
2022-07-29T10:21:02.086Z,1.85
2022-07-29T10:23:30.265Z,1.80
2022-07-29T10:26:13.813Z,1.60
2022-07-29T10:28:40.167Z,1.70
2022-07-29T10:31:09.066Z,2.05
2022-07-29T10:34:12.416Z,1.75
2022-07-29T10:36:53.687Z,2.13
2022-07-29T10:39:41.915Z,2.43
2022-07-29T10:42:34.161Z,2.20
2022-07-29T10:45:04.413Z,1.60
2022-07-29T10:47:31.599Z,1.90
2022-07-29T10:50:03.659Z,2.00
2022-07-29T10:52:53.613Z,2.20
2022-07-29T10:55:39.256Z,2.00
2022-07-29T10:58:24.360Z,2.50
2022-07-29T11:00:52.774Z,2.47
2022-07-29T11:03:52.203Z,2.50
2022-07-29T11:06:26.904Z,2.70
2022-07-29T11:09:18.088Z,2.70
2022-07-29T11:12:00.065Z,2.65
2022-07-29T11:14:58.508Z,2.33
2022-07-29T11:17:24.900Z,2.50
2022-07-29T11:19:52.317Z,2.40
2022-07-29T11:22:35.656Z,2.70
2022-07-29T11:25:16.999Z,2.92
2022-07-29T11:27:45.826Z,2.50
2022-07-29T11:30:13.099Z,2.20
2022-07-29T11:32:44.802Z,1.97
2022-07-29T11:35:22.274Z,1.50
2022-07-29T11:38:23.291Z,1.58
2022-07-29T11:41:29.956Z,1.58
2022-07-29T11:44:02.375Z,1.45
2022-07-29T11:46:51.877Z,1.60
2022-07-29T11:49:31.551Z,1.50
2022-07-29T11:52:02.397Z,1.58
2022-07-29T11:54:57.117Z,1.67
2022-07-29T11:57:22.076Z,2.83
2022-07-29T11:59:48.750Z,1.60
2022-07-29T12:02:37.490Z,2.00
2022-07-29T12:05:10.806Z,1.42
2022-07-29T12:07:39.446Z,1.45
2022-07-29T12:10:11.311Z,1.85
2022-07-29T12:12:53.730Z,1.80
2022-07-29T12:15:24.953Z,1.90
2022-07-29T12:18:18.415Z,2.00
2022-07-29T12:20:45.947Z,1.70
2022-07-29T12:23:16.237Z,2.20
2022-07-29T12:25:44.424Z,1.70
2022-07-29T12:28:26.891Z,1.80
2022-07-29T12:30:54.101Z,1.63
2022-07-29T12:33:25.451Z,2.20
2022-07-29T12:36:06.802Z,2.10
2022-07-29T12:38:38.080Z,2.13
2022-07-29T12:41:05.028Z,2.00
2022-07-29T12:43:32.528Z,1.95
2022-07-29T12:46:13.266Z,2.22
2022-07-29T12:48:42.374Z,2.13
2022-07-29T12:51:10.965Z,1.83
2022-07-29T12:53:37.849Z,1.95
2022-07-29T12:56:20.745Z,2.15
2022-07-29T12:58:52.620Z,1.90
2022-07-29T13:01:20.935Z,1.73
2022-07-29T13:03:57.635Z,1.83
2022-07-29T13:06:46.110Z,2.00
2022-07-29T13:09:20.652Z,2.03
2022-07-29T13:11:48.943Z,2.30
2022-07-29T13:14:32.522Z,2.20
2022-07-29T13:17:12.172Z,1.90
2022-07-29T13:19:47.243Z,2.33
2022-07-29T13:22:16.050Z,2.50
2022-07-29T13:24:49.480Z,2.22
2022-07-29T13:27:17.260Z,2.00
2022-07-29T13:29:44.113Z,2.30
2022-07-29T13:32:12.815Z,2.15
2022-07-29T13:34:39.303Z,2.22
2022-07-29T13:37:06.160Z,2.08
2022-07-29T13:39:32.650Z,2.20
2022-07-29T13:41:59.608Z,2.20
2022-07-29T13:44:26.279Z,2.00
2022-07-29T13:46:52.640Z,2.17
2022-07-29T13:49:19.086Z,1.88
2022-07-29T13:51:45.488Z,2.40
2022-07-29T13:54:11.852Z,2.30
2022-07-29T13:56:38.293Z,2.22
2022-07-29T13:59:04.685Z,3.00
2022-07-29T14:01:31.719Z,2.60
2022-07-29T14:03:58.229Z,2.20
2022-07-29T14:06:24.579Z,2.40
2022-07-29T14:08:51.812Z,2.60
2022-07-29T14:11:18.214Z,2.38
2022-07-29T14:13:45.472Z,2.20
2022-07-29T14:16:11.938Z,2.20
2022-07-29T14:18:38.376Z,2.23
2022-07-29T14:21:04.773Z,2.10
2022-07-29T14:23:31.325Z,2.13
2022-07-29T14:25:58.232Z,2.25
2022-07-29T14:28:24.617Z,1.80
2022-07-29T14:30:51.025Z,2.00
2022-07-29T14:33:17.446Z,2.20
2022-07-29T14:35:44.510Z,2.47
2022-07-29T14:38:13.002Z,2.10
2022-07-29T14:40:39.381Z,2.10
2022-07-29T14:43:05.825Z,2.87
2022-07-29T14:45:32.572Z,2.33
2022-07-29T14:47:59.545Z,2.65
2022-07-29T14:50:31.608Z,2.58
2022-07-29T14:52:58.922Z,2.78
2022-07-29T14:55:25.388Z,2.57
2022-07-29T14:57:51.825Z,2.67
2022-07-29T15:00:18.754Z,2.30
2022-07-29T15:03:01.536Z,2.35
2022-07-29T15:05:28.708Z,2.35
2022-07-29T15:07:55.076Z,2.50
2022-07-29T15:10:21.590Z,2.10
2022-07-29T15:12:51.279Z,2.30
2022-07-29T15:15:17.668Z,2.13
2022-07-29T15:17:44.044Z,2.35
2022-07-29T15:20:13.134Z,1.90
2022-07-29T15:22:40.101Z,1.73
2022-07-29T15:25:06.978Z,1.70
2022-07-29T15:27:33.552Z,1.92
2022-07-29T15:30:00.011Z,1.77
2022-07-29T15:32:29.255Z,2.10
2022-07-29T15:34:55.644Z,1.85
2022-07-29T15:37:22.048Z,1.75
2022-07-29T15:39:48.412Z,1.95
2022-07-29T15:42:14.788Z,1.40
2022-07-29T15:44:44.226Z,1.53
2022-07-29T15:47:10.680Z,1.40
2022-07-29T15:49:46.723Z,1.50
2022-07-29T15:52:26.181Z,1.55
2022-07-29T15:54:56.661Z,1.20
2022-07-29T15:57:24.525Z,1.80
2022-07-29T15:59:51.814Z,1.50
2022-07-29T16:02:18.334Z,1.50
2022-07-29T16:04:44.713Z,1.20
2022-07-29T16:07:11.059Z,1.13
2022-07-29T16:09:37.421Z,1.10
2022-07-29T16:12:10.533Z,1.50
2022-07-29T16:14:42.911Z,1.05
2022-07-29T16:17:09.335Z,1.20
2022-07-29T16:19:43.590Z,1.45
2022-07-29T16:22:12.368Z,1.30
2022-07-29T16:24:39.102Z,1.27
2022-07-29T16:27:05.757Z,1.60
2022-07-29T16:29:32.154Z,1.52
2022-07-29T16:31:58.610Z,1.20
2022-07-29T16:34:25.047Z,1.20
2022-07-29T16:36:51.385Z,1.73
2022-07-29T16:39:17.800Z,1.55
2022-07-29T16:41:44.185Z,1.50
2022-07-29T16:44:10.597Z,1.35
2022-07-29T16:46:37.414Z,1.30
2022-07-29T16:49:05.462Z,1.35
2022-07-29T16:51:32.540Z,2.30
2022-07-29T16:53:59.062Z,1.50
2022-07-29T16:56:25.657Z,1.30
2022-07-29T16:58:52.048Z,1.60
2022-07-29T17:01:18.545Z,1.45
2022-07-29T17:04:03.668Z,1.63
2022-07-29T17:06:30.276Z,1.83
2022-07-29T17:08:57.075Z,1.73
2022-07-29T17:11:53.270Z,1.57
2022-07-29T17:14:10.294Z,1.60
2022-07-29T17:16:36.706Z,1.90
2022-07-29T17:19:03.576Z,1.85
2022-07-29T17:21:29.916Z,1.60
2022-07-29T17:23:56.344Z,1.80
2022-07-29T17:26:22.778Z,1.80
2022-07-29T17:28:49.170Z,1.67
2022-07-29T17:31:15.885Z,1.75
2022-07-29T17:33:42.403Z,1.50
2022-07-29T17:36:24.093Z,1.60
2022-07-29T17:38:58.331Z,1.58
2022-07-29T17:41:28.232Z,1.90
2022-07-29T17:43:54.835Z,1.55
2022-07-29T17:46:24.601Z,1.60
2022-07-29T17:48:51.139Z,1.30
2022-07-29T17:51:20.604Z,1.60
2022-07-29T17:53:47.007Z,1.95
2022-07-29T17:56:14.037Z,1.80
2022-07-29T17:58:40.870Z,1.60
2022-07-29T18:01:07.569Z,1.50
2022-07-29T18:03:37.279Z,1.50
2022-07-29T18:06:04.979Z,1.60
2022-07-29T18:08:31.541Z,1.60
2022-07-29T18:10:57.916Z,1.60
2022-07-29T18:13:24.692Z,1.63
2022-07-29T18:15:51.091Z,1.70
2022-07-29T18:18:18.517Z,1.90
2022-07-29T18:20:45.493Z,1.70
2022-07-29T18:23:12.228Z,1.60
2022-07-29T18:25:39.382Z,1.50
2022-07-29T18:28:06.739Z,1.60
2022-07-29T18:30:37.735Z,1.95
2022-07-29T18:33:20.785Z,1.85
2022-07-29T18:35:49.405Z,1.40
2022-07-29T18:38:16.630Z,1.70
2022-07-29T18:40:44.472Z,1.52
2022-07-29T18:43:11.962Z,1.60
2022-07-29T18:45:39.671Z,1.45
2022-07-29T18:48:12.802Z,1.50
2022-07-29T18:50:42.049Z,1.87
2022-07-29T18:53:08.732Z,1.60
2022-07-29T18:55:35.277Z,2.20
2022-07-29T18:58:04.175Z,2.10
2022-07-29T19:00:30.550Z,2.05
2022-07-29T19:02:59.498Z,1.80
2022-07-29T19:05:28.147Z,1.60
2022-07-29T19:07:57.116Z,2.22
2022-07-29T19:10:23.551Z,2.10
2022-07-29T19:12:52.709Z,1.80
2022-07-29T19:15:20.069Z,1.67
2022-07-29T19:17:47.890Z,1.60
2022-07-29T19:20:14.418Z,1.65
2022-07-29T19:22:40.859Z,1.92
2022-07-29T19:25:07.822Z,2.20
2022-07-29T19:27:34.190Z,2.47
2022-07-29T19:30:00.558Z,1.40
2022-07-29T19:32:26.951Z,2.05
2022-07-29T19:35:12.507Z,1.88
2022-07-29T19:37:38.993Z,2.03
2022-07-29T19:40:06.698Z,2.33
2022-07-29T19:42:33.432Z,1.90
2022-07-29T19:45:02.334Z,2.33
2022-07-29T19:47:28.779Z,2.30
2022-07-29T19:49:55.168Z,2.75
2022-07-29T19:52:21.614Z,1.93
2022-07-29T19:54:48.134Z,2.25
2022-07-29T19:57:14.516Z,2.20
2022-07-29T19:59:41.226Z,2.25
2022-07-29T20:02:11.040Z,1.92
2022-07-29T20:04:38.462Z,2.23
2022-07-29T20:07:05.883Z,2.00
2022-07-29T20:09:32.390Z,2.70
2022-07-29T20:11:59.076Z,2.55
2022-07-29T20:14:25.458Z,2.30
2022-07-29T20:16:53.962Z,2.23
2022-07-29T20:19:20.388Z,2.15
2022-07-29T20:21:46.757Z,2.25
2022-07-29T20:24:13.132Z,2.33
2022-07-29T20:26:39.500Z,2.30
2022-07-29T20:29:05.952Z,2.40
2022-07-29T20:31:35.703Z,2.80
2022-07-29T20:34:02.098Z,2.50
2022-07-29T20:36:28.572Z,2.30
2022-07-29T20:38:55.545Z,3.10
2022-07-29T20:41:22.342Z,1.97
2022-07-29T20:43:51.369Z,2.67
2022-07-29T20:46:18.244Z,2.60
2022-07-29T20:48:45.652Z,2.88
2022-07-29T20:51:12.185Z,2.53
2022-07-29T20:53:39.859Z,2.93
2022-07-29T20:56:07.529Z,2.47
2022-07-29T20:58:34.584Z,2.50
2022-07-29T21:01:01.245Z,2.55
2022-07-29T21:03:27.629Z,2.53
2022-07-29T21:05:53.998Z,3.00
2022-07-29T21:08:20.431Z,3.08
2022-07-29T21:10:46.803Z,2.83
2022-07-29T21:13:14.305Z,2.72
2022-07-29T21:15:43.994Z,2.70
2022-07-29T21:18:26.678Z,3.10
2022-07-29T21:21:00.829Z,3.00
2022-07-29T21:23:27.804Z,2.70
2022-07-29T21:25:55.173Z,3.10
2022-07-29T21:28:27.792Z,2.97
2022-07-29T21:31:00.170Z,2.57
2022-07-29T21:33:28.039Z,2.80
2022-07-29T21:38:41.638Z,2.90
2022-07-29T21:41:08.214Z,3.10
2022-07-29T21:43:34.631Z,3.43
2022-07-29T21:46:01.407Z,3.13
2022-07-29T21:48:28.605Z,2.85
2022-07-29T21:50:55.387Z,2.38
2022-07-29T21:53:24.971Z,2.90
2022-07-29T21:55:56.124Z,2.20
2022-07-29T21:58:23.637Z,2.22
2022-07-29T22:00:50.132Z,2.50
2022-07-29T22:03:16.585Z,2.83
2022-07-29T22:05:43.646Z,2.13
2022-07-29T22:08:10.445Z,2.77
2022-07-29T22:10:36.907Z,2.40
2022-07-29T22:13:03.813Z,2.13
2022-07-29T22:15:30.732Z,2.60
2022-07-29T22:17:57.799Z,2.60
2022-07-29T22:20:24.417Z,2.53
2022-07-29T22:22:51.029Z,2.92
2022-07-29T22:25:17.801Z,2.30
2022-07-29T22:27:44.516Z,2.75
2022-07-29T22:30:11.835Z,2.22
2022-07-29T22:32:38.238Z,2.30
2022-07-29T22:35:05.055Z,2.58
2022-07-29T22:37:31.678Z,2.50
2022-07-29T22:39:58.152Z,2.63
2022-07-29T22:42:24.535Z,2.88
2022-07-29T22:44:51.210Z,3.17
2022-07-29T22:47:17.618Z,2.40
2022-07-29T22:49:44.096Z,2.45
2022-07-29T22:52:10.746Z,2.50
2022-07-29T22:54:38.240Z,2.35
2022-07-29T22:57:05.597Z,2.70
2022-07-29T22:59:32.091Z,3.20
2022-07-29T23:01:58.561Z,2.58
2022-07-29T23:04:25.465Z,2.95
2022-07-29T23:06:51.845Z,3.40
2022-07-29T23:09:18.325Z,2.77
2022-07-29T23:11:44.920Z,2.90
2022-07-29T23:14:11.302Z,3.15
2022-07-29T23:16:37.862Z,2.95
2022-07-29T23:19:04.225Z,3.55
2022-07-29T23:21:30.657Z,2.60
2022-07-29T23:23:57.026Z,2.63
2022-07-29T23:26:23.396Z,2.92
2022-07-29T23:28:49.752Z,3.45
2022-07-29T23:31:16.222Z,3.10
2022-07-29T23:33:42.642Z,3.33
2022-07-29T23:36:09.040Z,2.92
2022-07-29T23:38:35.391Z,3.17
2022-07-29T23:41:02.265Z,3.70
2022-07-29T23:43:28.840Z,3.50
2022-07-29T23:45:56.216Z,3.40
2022-07-29T23:48:24.595Z,3.47
2022-07-29T23:50:51.016Z,3.13
2022-07-29T23:53:17.556Z,3.35
2022-07-29T23:55:43.930Z,2.90
2022-07-29T23:58:10.337Z,2.90
